sensor_id;sensor_type;location;lat;lon;timestamp;P1;durP1;ratioP1;P2;durP2;ratioP2
80679;SDS011;70043;51.982;-8.514;2023-05-16T00:01:08;1.20;;;0.45;;
80679;SDS011;70043;51.982;-8.514;2023-05-16T00:03:37;2.53;;;0.30;;
80679;SDS011;70043;51.982;-8.514;2023-05-16T00:06:07;0.03;;;0.03;;
80679;SDS011;70043;51.982;-8.514;2023-05-16T00:08:35;0.00;;;0.00;;
80679;SDS011;70043;51.982;-8.514;2023-05-16T00:11:03;0.28;;;0.28;;
80679;SDS011;70043;51.982;-8.514;2023-05-16T00:13:31;0.10;;;0.10;;
80679;SDS011;70043;51.982;-8.514;2023-05-16T00:15:59;0.00;;;0.00;;
80679;SDS011;70043;51.982;-8.514;2023-05-16T00:18:29;0.32;;;0.32;;
80679;SDS011;70043;51.982;-8.514;2023-05-16T00:20:56;0.52;;;0.38;;
80679;SDS011;70043;51.982;-8.514;2023-05-16T00:23:26;1.55;;;0.13;;
80679;SDS011;70043;51.982;-8.514;2023-05-16T00:25:53;0.35;;;0.25;;
80679;SDS011;70043;51.982;-8.514;2023-05-16T00:28:21;0.22;;;0.20;;
80679;SDS011;70043;51.982;-8.514;2023-05-16T00:30:49;0.08;;;0.08;;
80679;SDS011;70043;51.982;-8.514;2023-05-16T00:33:17;0.10;;;0.10;;
80679;SDS011;70043;51.982;-8.514;2023-05-16T00:35:44;0.47;;;0.28;;
80679;SDS011;70043;51.982;-8.514;2023-05-16T00:38:13;0.38;;;0.17;;
80679;SDS011;70043;51.982;-8.514;2023-05-16T00:40:42;1.45;;;0.30;;
80679;SDS011;70043;51.982;-8.514;2023-05-16T00:43:10;0.35;;;0.28;;
80679;SDS011;70043;51.982;-8.514;2023-05-16T00:45:38;0.50;;;0.20;;
80679;SDS011;70043;51.982;-8.514;2023-05-16T00:48:06;0.55;;;0.20;;
80679;SDS011;70043;51.982;-8.514;2023-05-16T00:50:35;0.65;;;0.50;;
80679;SDS011;70043;51.982;-8.514;2023-05-16T00:53:03;0.32;;;0.22;;
80679;SDS011;70043;51.982;-8.514;2023-05-16T00:55:31;2.42;;;0.32;;
80679;SDS011;70043;51.982;-8.514;2023-05-16T00:58:00;0.90;;;0.30;;
80679;SDS011;70043;51.982;-8.514;2023-05-16T01:00:28;0.10;;;0.10;;
80679;SDS011;70043;51.982;-8.514;2023-05-16T01:02:56;0.40;;;0.40;;
80679;SDS011;70043;51.982;-8.514;2023-05-16T01:05:24;0.05;;;0.00;;
80679;SDS011;70043;51.982;-8.514;2023-05-16T01:07:51;1.30;;;0.32;;
80679;SDS011;70043;51.982;-8.514;2023-05-16T01:10:19;0.20;;;0.20;;
80679;SDS011;70043;51.982;-8.514;2023-05-16T01:12:50;0.10;;;0.10;;
80679;SDS011;70043;51.982;-8.514;2023-05-16T01:15:25;0.10;;;0.10;;
80679;SDS011;70043;51.982;-8.514;2023-05-16T01:17:55;0.50;;;0.50;;
80679;SDS011;70043;51.982;-8.514;2023-05-16T01:20:32;1.48;;;0.30;;
80679;SDS011;70043;51.982;-8.514;2023-05-16T01:23:04;0.68;;;0.38;;
80679;SDS011;70043;51.982;-8.514;2023-05-16T01:25:52;0.35;;;0.35;;
80679;SDS011;70043;51.982;-8.514;2023-05-16T01:28:24;0.28;;;0.20;;
80679;SDS011;70043;51.982;-8.514;2023-05-16T01:30:53;0.35;;;0.30;;
80679;SDS011;70043;51.982;-8.514;2023-05-16T01:33:21;1.85;;;0.52;;
80679;SDS011;70043;51.982;-8.514;2023-05-16T01:35:51;0.65;;;0.43;;
80679;SDS011;70043;51.982;-8.514;2023-05-16T01:38:24;0.88;;;0.63;;
80679;SDS011;70043;51.982;-8.514;2023-05-16T01:40:53;3.78;;;0.52;;
80679;SDS011;70043;51.982;-8.514;2023-05-16T01:43:28;3.20;;;0.80;;
80679;SDS011;70043;51.982;-8.514;2023-05-16T01:46:01;0.10;;;0.03;;
80679;SDS011;70043;51.982;-8.514;2023-05-16T01:48:36;0.17;;;0.10;;
80679;SDS011;70043;51.982;-8.514;2023-05-16T01:51:09;0.10;;;0.10;;
80679;SDS011;70043;51.982;-8.514;2023-05-16T01:53:37;0.73;;;0.65;;
80679;SDS011;70043;51.982;-8.514;2023-05-16T01:56:08;0.15;;;0.15;;
80679;SDS011;70043;51.982;-8.514;2023-05-16T01:58:40;0.20;;;0.20;;
80679;SDS011;70043;51.982;-8.514;2023-05-16T02:01:08;0.13;;;0.13;;
80679;SDS011;70043;51.982;-8.514;2023-05-16T02:03:36;0.52;;;0.43;;
80679;SDS011;70043;51.982;-8.514;2023-05-16T02:08:53;0.50;;;0.20;;
80679;SDS011;70043;51.982;-8.514;2023-05-16T02:11:21;1.48;;;0.30;;
80679;SDS011;70043;51.982;-8.514;2023-05-16T02:13:50;0.10;;;0.10;;
80679;SDS011;70043;51.982;-8.514;2023-05-16T02:16:18;0.17;;;0.17;;
80679;SDS011;70043;51.982;-8.514;2023-05-16T02:18:46;0.35;;;0.35;;
80679;SDS011;70043;51.982;-8.514;2023-05-16T02:21:14;0.55;;;0.35;;
80679;SDS011;70043;51.982;-8.514;2023-05-16T02:23:41;0.90;;;0.47;;
80679;SDS011;70043;51.982;-8.514;2023-05-16T02:26:09;0.20;;;0.20;;
80679;SDS011;70043;51.982;-8.514;2023-05-16T02:28:37;0.30;;;0.30;;
80679;SDS011;70043;51.982;-8.514;2023-05-16T02:31:06;0.28;;;0.25;;
80679;SDS011;70043;51.982;-8.514;2023-05-16T02:33:34;0.43;;;0.20;;
80679;SDS011;70043;51.982;-8.514;2023-05-16T02:36:02;2.08;;;0.45;;
80679;SDS011;70043;51.982;-8.514;2023-05-16T02:38:30;0.25;;;0.10;;
80679;SDS011;70043;51.982;-8.514;2023-05-16T02:40:57;0.70;;;0.20;;
80679;SDS011;70043;51.982;-8.514;2023-05-16T02:43:25;0.63;;;0.22;;
80679;SDS011;70043;51.982;-8.514;2023-05-16T02:45:53;0.35;;;0.35;;
80679;SDS011;70043;51.982;-8.514;2023-05-16T02:48:22;0.40;;;0.40;;
80679;SDS011;70043;51.982;-8.514;2023-05-16T02:50:50;3.33;;;0.20;;
80679;SDS011;70043;51.982;-8.514;2023-05-16T02:53:18;0.20;;;0.15;;
80679;SDS011;70043;51.982;-8.514;2023-05-16T02:55:46;2.90;;;0.57;;
80679;SDS011;70043;51.982;-8.514;2023-05-16T02:58:13;0.70;;;0.47;;
80679;SDS011;70043;51.982;-8.514;2023-05-16T03:00:41;0.88;;;0.45;;
80679;SDS011;70043;51.982;-8.514;2023-05-16T03:03:09;0.25;;;0.25;;
80679;SDS011;70043;51.982;-8.514;2023-05-16T03:05:38;0.35;;;0.10;;
80679;SDS011;70043;51.982;-8.514;2023-05-16T03:08:06;3.30;;;0.63;;
80679;SDS011;70043;51.982;-8.514;2023-05-16T03:10:34;1.85;;;0.30;;
80679;SDS011;70043;51.982;-8.514;2023-05-16T03:13:03;0.03;;;0.03;;
80679;SDS011;70043;51.982;-8.514;2023-05-16T03:15:31;0.00;;;0.00;;
80679;SDS011;70043;51.982;-8.514;2023-05-16T03:17:59;0.00;;;0.00;;
80679;SDS011;70043;51.982;-8.514;2023-05-16T03:20:27;0.20;;;0.20;;
80679;SDS011;70043;51.982;-8.514;2023-05-16T03:22:56;0.10;;;0.10;;
80679;SDS011;70043;51.982;-8.514;2023-05-16T03:25:24;8.68;;;0.28;;
80679;SDS011;70043;51.982;-8.514;2023-05-16T03:27:51;1.20;;;0.60;;
80679;SDS011;70043;51.982;-8.514;2023-05-16T03:30:19;0.00;;;0.00;;
80679;SDS011;70043;51.982;-8.514;2023-05-16T03:32:47;0.00;;;0.00;;
80679;SDS011;70043;51.982;-8.514;2023-05-16T03:35:16;0.57;;;0.47;;
80679;SDS011;70043;51.982;-8.514;2023-05-16T03:37:43;4.80;;;0.93;;
80679;SDS011;70043;51.982;-8.514;2023-05-16T03:40:13;0.00;;;0.00;;
80679;SDS011;70043;51.982;-8.514;2023-05-16T03:42:40;0.65;;;0.45;;
80679;SDS011;70043;51.982;-8.514;2023-05-16T03:45:08;0.52;;;0.47;;
80679;SDS011;70043;51.982;-8.514;2023-05-16T03:47:36;3.60;;;0.52;;
80679;SDS011;70043;51.982;-8.514;2023-05-16T03:50:04;0.65;;;0.25;;
80679;SDS011;70043;51.982;-8.514;2023-05-16T03:52:34;0.00;;;0.00;;
80679;SDS011;70043;51.982;-8.514;2023-05-16T03:55:02;0.60;;;0.40;;
80679;SDS011;70043;51.982;-8.514;2023-05-16T03:57:32;0.00;;;0.00;;
80679;SDS011;70043;51.982;-8.514;2023-05-16T03:59:59;0.10;;;0.10;;
80679;SDS011;70043;51.982;-8.514;2023-05-16T04:02:27;0.00;;;0.00;;
80679;SDS011;70043;51.982;-8.514;2023-05-16T04:04:55;0.32;;;0.20;;
80679;SDS011;70043;51.982;-8.514;2023-05-16T04:07:23;0.52;;;0.52;;
80679;SDS011;70043;51.982;-8.514;2023-05-16T04:09:52;0.30;;;0.15;;
80679;SDS011;70043;51.982;-8.514;2023-05-16T04:12:22;1.27;;;1.02;;
80679;SDS011;70043;51.982;-8.514;2023-05-16T04:14:52;0.25;;;0.20;;
80679;SDS011;70043;51.982;-8.514;2023-05-16T04:17:19;0.30;;;0.30;;
80679;SDS011;70043;51.982;-8.514;2023-05-16T04:19:47;1.65;;;0.95;;
80679;SDS011;70043;51.982;-8.514;2023-05-16T04:22:15;0.57;;;0.28;;
80679;SDS011;70043;51.982;-8.514;2023-05-16T04:24:43;0.57;;;0.20;;
80679;SDS011;70043;51.982;-8.514;2023-05-16T04:27:10;0.13;;;0.13;;
80679;SDS011;70043;51.982;-8.514;2023-05-16T04:29:38;0.20;;;0.20;;
80679;SDS011;70043;51.982;-8.514;2023-05-16T04:32:08;0.00;;;0.00;;
80679;SDS011;70043;51.982;-8.514;2023-05-16T04:34:36;0.30;;;0.30;;
80679;SDS011;70043;51.982;-8.514;2023-05-16T04:37:04;0.13;;;0.13;;
80679;SDS011;70043;51.982;-8.514;2023-05-16T04:39:33;0.38;;;0.38;;
80679;SDS011;70043;51.982;-8.514;2023-05-16T04:42:01;0.38;;;0.38;;
80679;SDS011;70043;51.982;-8.514;2023-05-16T04:44:29;0.20;;;0.20;;
80679;SDS011;70043;51.982;-8.514;2023-05-16T04:46:58;0.52;;;0.52;;
80679;SDS011;70043;51.982;-8.514;2023-05-16T04:49:27;0.17;;;0.17;;
80679;SDS011;70043;51.982;-8.514;2023-05-16T04:52:05;0.35;;;0.20;;
80679;SDS011;70043;51.982;-8.514;2023-05-16T04:57:16;0.35;;;0.15;;
80679;SDS011;70043;51.982;-8.514;2023-05-16T04:59:46;0.25;;;0.25;;
80679;SDS011;70043;51.982;-8.514;2023-05-16T05:02:17;0.43;;;0.20;;
80679;SDS011;70043;51.982;-8.514;2023-05-16T05:04:50;0.20;;;0.20;;
80679;SDS011;70043;51.982;-8.514;2023-05-16T05:07:19;0.75;;;0.75;;
80679;SDS011;70043;51.982;-8.514;2023-05-16T05:09:46;0.28;;;0.25;;
80679;SDS011;70043;51.982;-8.514;2023-05-16T05:12:23;0.52;;;0.40;;
80679;SDS011;70043;51.982;-8.514;2023-05-16T05:14:52;3.80;;;0.30;;
80679;SDS011;70043;51.982;-8.514;2023-05-16T05:17:21;3.72;;;0.30;;
80679;SDS011;70043;51.982;-8.514;2023-05-16T05:19:50;1.67;;;0.73;;
80679;SDS011;70043;51.982;-8.514;2023-05-16T05:22:18;0.00;;;0.00;;
80679;SDS011;70043;51.982;-8.514;2023-05-16T05:24:46;0.15;;;0.10;;
80679;SDS011;70043;51.982;-8.514;2023-05-16T05:27:15;0.10;;;0.10;;
80679;SDS011;70043;51.982;-8.514;2023-05-16T05:29:46;0.10;;;0.10;;
80679;SDS011;70043;51.982;-8.514;2023-05-16T05:32:14;0.20;;;0.20;;
80679;SDS011;70043;51.982;-8.514;2023-05-16T05:34:41;0.00;;;0.00;;
80679;SDS011;70043;51.982;-8.514;2023-05-16T05:37:11;0.52;;;0.20;;
80679;SDS011;70043;51.982;-8.514;2023-05-16T05:39:39;0.20;;;0.20;;
80679;SDS011;70043;51.982;-8.514;2023-05-16T05:42:07;0.30;;;0.30;;
80679;SDS011;70043;51.982;-8.514;2023-05-16T05:44:36;0.00;;;0.00;;
80679;SDS011;70043;51.982;-8.514;2023-05-16T05:47:04;0.47;;;0.35;;
80679;SDS011;70043;51.982;-8.514;2023-05-16T05:49:36;0.40;;;0.13;;
80679;SDS011;70043;51.982;-8.514;2023-05-16T05:52:05;0.10;;;0.10;;
80679;SDS011;70043;51.982;-8.514;2023-05-16T05:54:35;0.10;;;0.10;;
80679;SDS011;70043;51.982;-8.514;2023-05-16T05:57:02;8.88;;;0.95;;
80679;SDS011;70043;51.982;-8.514;2023-05-16T05:59:32;0.65;;;0.20;;
80679;SDS011;70043;51.982;-8.514;2023-05-16T06:02:00;0.68;;;0.25;;
80679;SDS011;70043;51.982;-8.514;2023-05-16T06:04:28;0.52;;;0.20;;
80679;SDS011;70043;51.982;-8.514;2023-05-16T06:06:56;5.00;;;0.40;;
80679;SDS011;70043;51.982;-8.514;2023-05-16T06:09:24;0.73;;;0.20;;
80679;SDS011;70043;51.982;-8.514;2023-05-16T06:11:54;3.08;;;0.22;;
80679;SDS011;70043;51.982;-8.514;2023-05-16T06:14:22;1.15;;;0.63;;
80679;SDS011;70043;51.982;-8.514;2023-05-16T06:16:51;0.10;;;0.10;;
80679;SDS011;70043;51.982;-8.514;2023-05-16T06:19:19;0.10;;;0.10;;
80679;SDS011;70043;51.982;-8.514;2023-05-16T06:21:48;0.20;;;0.20;;
80679;SDS011;70043;51.982;-8.514;2023-05-16T06:24:20;2.78;;;0.40;;
80679;SDS011;70043;51.982;-8.514;2023-05-16T06:26:49;0.47;;;0.30;;
80679;SDS011;70043;51.982;-8.514;2023-05-16T06:29:24;0.10;;;0.10;;
80679;SDS011;70043;51.982;-8.514;2023-05-16T06:31:52;0.77;;;0.77;;
80679;SDS011;70043;51.982;-8.514;2023-05-16T06:34:22;0.32;;;0.22;;
80679;SDS011;70043;51.982;-8.514;2023-05-16T06:36:56;0.13;;;0.10;;
80679;SDS011;70043;51.982;-8.514;2023-05-16T06:39:24;0.10;;;0.10;;
80679;SDS011;70043;51.982;-8.514;2023-05-16T06:42:02;0.98;;;0.15;;
80679;SDS011;70043;51.982;-8.514;2023-05-16T06:44:35;0.43;;;0.22;;
80679;SDS011;70043;51.982;-8.514;2023-05-16T06:47:03;1.23;;;0.63;;
80679;SDS011;70043;51.982;-8.514;2023-05-16T06:49:31;0.03;;;0.03;;
80679;SDS011;70043;51.982;-8.514;2023-05-16T06:51:59;6.13;;;0.57;;
80679;SDS011;70043;51.982;-8.514;2023-05-16T06:54:28;0.30;;;0.30;;
80679;SDS011;70043;51.982;-8.514;2023-05-16T06:56:59;0.65;;;0.40;;
80679;SDS011;70043;51.982;-8.514;2023-05-16T06:59:29;1.65;;;0.32;;
80679;SDS011;70043;51.982;-8.514;2023-05-16T07:01:56;1.38;;;0.50;;
80679;SDS011;70043;51.982;-8.514;2023-05-16T07:04:25;6.18;;;0.77;;
80679;SDS011;70043;51.982;-8.514;2023-05-16T07:06:53;2.40;;;0.63;;
80679;SDS011;70043;51.982;-8.514;2023-05-16T07:09:21;0.17;;;0.17;;
80679;SDS011;70043;51.982;-8.514;2023-05-16T07:11:49;0.57;;;0.50;;
80679;SDS011;70043;51.982;-8.514;2023-05-16T07:14:20;0.93;;;0.15;;
80679;SDS011;70043;51.982;-8.514;2023-05-16T07:16:53;2.38;;;1.10;;
80679;SDS011;70043;51.982;-8.514;2023-05-16T07:19:21;1.77;;;0.63;;
80679;SDS011;70043;51.982;-8.514;2023-05-16T07:21:49;0.35;;;0.35;;
80679;SDS011;70043;51.982;-8.514;2023-05-16T07:24:17;6.88;;;0.85;;
80679;SDS011;70043;51.982;-8.514;2023-05-16T07:26:45;3.58;;;0.63;;
80679;SDS011;70043;51.982;-8.514;2023-05-16T07:29:13;3.17;;;0.43;;
80679;SDS011;70043;51.982;-8.514;2023-05-16T07:31:42;1.13;;;0.75;;
80679;SDS011;70043;51.982;-8.514;2023-05-16T07:34:10;0.30;;;0.28;;
80679;SDS011;70043;51.982;-8.514;2023-05-16T07:36:38;2.78;;;0.50;;
80679;SDS011;70043;51.982;-8.514;2023-05-16T07:39:06;5.47;;;1.55;;
80679;SDS011;70043;51.982;-8.514;2023-05-16T07:41:34;1.60;;;0.70;;
80679;SDS011;70043;51.982;-8.514;2023-05-16T07:44:02;3.03;;;0.70;;
80679;SDS011;70043;51.982;-8.514;2023-05-16T07:46:30;4.32;;;0.60;;
80679;SDS011;70043;51.982;-8.514;2023-05-16T07:48:59;1.95;;;0.65;;
80679;SDS011;70043;51.982;-8.514;2023-05-16T07:51:27;4.63;;;0.70;;
80679;SDS011;70043;51.982;-8.514;2023-05-16T07:54:02;5.85;;;1.00;;
80679;SDS011;70043;51.982;-8.514;2023-05-16T07:56:30;0.98;;;0.47;;
80679;SDS011;70043;51.982;-8.514;2023-05-16T07:58:58;1.98;;;0.95;;
80679;SDS011;70043;51.982;-8.514;2023-05-16T08:01:26;4.32;;;0.73;;
80679;SDS011;70043;51.982;-8.514;2023-05-16T08:03:53;1.70;;;0.63;;
80679;SDS011;70043;51.982;-8.514;2023-05-16T08:06:23;1.08;;;0.63;;
80679;SDS011;70043;51.982;-8.514;2023-05-16T08:08:53;3.13;;;0.75;;
80679;SDS011;70043;51.982;-8.514;2023-05-16T08:11:21;9.43;;;1.17;;
80679;SDS011;70043;51.982;-8.514;2023-05-16T08:13:49;1.77;;;1.10;;
80679;SDS011;70043;51.982;-8.514;2023-05-16T08:16:17;1.42;;;0.43;;
80679;SDS011;70043;51.982;-8.514;2023-05-16T08:18:45;2.42;;;0.63;;
80679;SDS011;70043;51.982;-8.514;2023-05-16T08:21:17;0.88;;;0.60;;
80679;SDS011;70043;51.982;-8.514;2023-05-16T08:23:58;6.03;;;1.10;;
80679;SDS011;70043;51.982;-8.514;2023-05-16T08:26:26;1.05;;;0.28;;
80679;SDS011;70043;51.982;-8.514;2023-05-16T08:29:05;1.85;;;0.73;;
80679;SDS011;70043;51.982;-8.514;2023-05-16T08:31:33;1.27;;;0.43;;
80679;SDS011;70043;51.982;-8.514;2023-05-16T08:34:10;7.32;;;1.20;;
80679;SDS011;70043;51.982;-8.514;2023-05-16T08:36:38;5.80;;;0.80;;
80679;SDS011;70043;51.982;-8.514;2023-05-16T08:39:07;5.05;;;1.10;;
80679;SDS011;70043;51.982;-8.514;2023-05-16T08:41:38;2.15;;;0.68;;
80679;SDS011;70043;51.982;-8.514;2023-05-16T08:44:15;1.50;;;0.70;;
80679;SDS011;70043;51.982;-8.514;2023-05-16T08:46:47;1.35;;;0.60;;
80679;SDS011;70043;51.982;-8.514;2023-05-16T08:49:17;1.75;;;0.73;;
80679;SDS011;70043;51.982;-8.514;2023-05-16T08:51:45;1.27;;;0.40;;
80679;SDS011;70043;51.982;-8.514;2023-05-16T08:54:15;1.35;;;0.52;;
80679;SDS011;70043;51.982;-8.514;2023-05-16T08:56:43;5.68;;;0.93;;
80679;SDS011;70043;51.982;-8.514;2023-05-16T08:59:12;7.00;;;1.05;;
80679;SDS011;70043;51.982;-8.514;2023-05-16T09:01:40;1.00;;;0.57;;
80679;SDS011;70043;51.982;-8.514;2023-05-16T09:04:11;2.20;;;0.85;;
80679;SDS011;70043;51.982;-8.514;2023-05-16T09:06:40;2.30;;;0.70;;
80679;SDS011;70043;51.982;-8.514;2023-05-16T09:09:07;11.63;;;1.92;;
80679;SDS011;70043;51.982;-8.514;2023-05-16T09:11:38;3.13;;;0.80;;
80679;SDS011;70043;51.982;-8.514;2023-05-16T09:14:06;2.45;;;0.85;;
80679;SDS011;70043;51.982;-8.514;2023-05-16T09:16:34;1.88;;;0.50;;
80679;SDS011;70043;51.982;-8.514;2023-05-16T09:19:01;3.50;;;0.75;;
80679;SDS011;70043;51.982;-8.514;2023-05-16T09:21:30;5.53;;;0.50;;
80679;SDS011;70043;51.982;-8.514;2023-05-16T09:24:01;1.33;;;0.52;;
80679;SDS011;70043;51.982;-8.514;2023-05-16T09:26:30;12.95;;;2.20;;
80679;SDS011;70043;51.982;-8.514;2023-05-16T09:29:00;2.05;;;0.90;;
80679;SDS011;70043;51.982;-8.514;2023-05-16T09:31:28;3.30;;;0.45;;
80679;SDS011;70043;51.982;-8.514;2023-05-16T09:34:02;1.58;;;0.65;;
80679;SDS011;70043;51.982;-8.514;2023-05-16T09:36:30;5.50;;;0.88;;
80679;SDS011;70043;51.982;-8.514;2023-05-16T09:38:59;8.05;;;1.13;;
80679;SDS011;70043;51.982;-8.514;2023-05-16T09:41:32;3.05;;;0.88;;
80679;SDS011;70043;51.982;-8.514;2023-05-16T09:44:04;5.22;;;0.95;;
80679;SDS011;70043;51.982;-8.514;2023-05-16T09:46:33;4.10;;;0.90;;
80679;SDS011;70043;51.982;-8.514;2023-05-16T09:49:02;1.17;;;0.70;;
80679;SDS011;70043;51.982;-8.514;2023-05-16T09:51:30;0.93;;;0.43;;
80679;SDS011;70043;51.982;-8.514;2023-05-16T09:53:58;2.95;;;0.82;;
80679;SDS011;70043;51.982;-8.514;2023-05-16T09:56:26;3.45;;;0.70;;
80679;SDS011;70043;51.982;-8.514;2023-05-16T09:58:54;8.40;;;1.02;;
80679;SDS011;70043;51.982;-8.514;2023-05-16T10:01:24;1.55;;;0.45;;
80679;SDS011;70043;51.982;-8.514;2023-05-16T10:03:52;2.53;;;0.57;;
80679;SDS011;70043;51.982;-8.514;2023-05-16T10:06:26;1.10;;;0.47;;
80679;SDS011;70043;51.982;-8.514;2023-05-16T10:09:05;1.27;;;0.28;;
80679;SDS011;70043;51.982;-8.514;2023-05-16T10:11:33;2.83;;;0.57;;
80679;SDS011;70043;51.982;-8.514;2023-05-16T10:14:04;2.40;;;0.65;;
80679;SDS011;70043;51.982;-8.514;2023-05-16T10:16:42;4.72;;;1.17;;
80679;SDS011;70043;51.982;-8.514;2023-05-16T10:19:20;47.50;;;5.43;;
80679;SDS011;70043;51.982;-8.514;2023-05-16T10:22:04;5.57;;;0.82;;
80679;SDS011;70043;51.982;-8.514;2023-05-16T10:24:51;20.52;;;1.70;;
80679;SDS011;70043;51.982;-8.514;2023-05-16T10:27:27;11.63;;;1.80;;
80679;SDS011;70043;51.982;-8.514;2023-05-16T10:29:59;12.50;;;2.20;;
80679;SDS011;70043;51.982;-8.514;2023-05-16T10:32:31;5.18;;;2.05;;
80679;SDS011;70043;51.982;-8.514;2023-05-16T10:34:59;4.72;;;0.90;;
80679;SDS011;70043;51.982;-8.514;2023-05-16T10:37:28;8.68;;;2.15;;
80679;SDS011;70043;51.982;-8.514;2023-05-16T10:39:56;35.60;;;3.40;;
80679;SDS011;70043;51.982;-8.514;2023-05-16T10:42:24;3.10;;;1.17;;
80679;SDS011;70043;51.982;-8.514;2023-05-16T10:44:52;3.72;;;1.20;;
80679;SDS011;70043;51.982;-8.514;2023-05-16T10:47:21;3.15;;;0.82;;
80679;SDS011;70043;51.982;-8.514;2023-05-16T10:49:50;3.97;;;0.90;;
80679;SDS011;70043;51.982;-8.514;2023-05-16T10:52:18;4.88;;;0.70;;
80679;SDS011;70043;51.982;-8.514;2023-05-16T10:54:49;5.70;;;1.08;;
80679;SDS011;70043;51.982;-8.514;2023-05-16T10:57:17;14.80;;;1.25;;
80679;SDS011;70043;51.982;-8.514;2023-05-16T10:59:49;6.10;;;1.00;;
80679;SDS011;70043;51.982;-8.514;2023-05-16T11:02:21;7.10;;;1.10;;
80679;SDS011;70043;51.982;-8.514;2023-05-16T11:04:52;6.07;;;1.35;;
80679;SDS011;70043;51.982;-8.514;2023-05-16T11:07:22;2.42;;;0.73;;
80679;SDS011;70043;51.982;-8.514;2023-05-16T13:34:08;3.00;;;1.30;;
80679;SDS011;70043;51.982;-8.514;2023-05-16T13:36:35;3.15;;;1.20;;
80679;SDS011;70043;51.982;-8.514;2023-05-16T13:39:05;7.45;;;1.50;;
80679;SDS011;70043;51.982;-8.514;2023-05-16T13:41:33;2.88;;;0.80;;
80679;SDS011;70043;51.982;-8.514;2023-05-16T13:44:02;1.65;;;1.02;;
80679;SDS011;70043;51.982;-8.514;2023-05-16T13:46:30;4.68;;;1.67;;
80679;SDS011;70043;51.982;-8.514;2023-05-16T13:48:58;3.90;;;1.15;;
80679;SDS011;70043;51.982;-8.514;2023-05-16T13:51:27;3.78;;;1.13;;
80679;SDS011;70043;51.982;-8.514;2023-05-16T13:54:04;3.53;;;1.30;;
80679;SDS011;70043;51.982;-8.514;2023-05-16T13:56:32;3.95;;;1.23;;
80679;SDS011;70043;51.982;-8.514;2023-05-16T13:58:59;2.83;;;1.00;;
80679;SDS011;70043;51.982;-8.514;2023-05-16T14:01:29;4.32;;;1.55;;
80679;SDS011;70043;51.982;-8.514;2023-05-16T14:03:57;2.65;;;0.88;;
80679;SDS011;70043;51.982;-8.514;2023-05-16T14:06:36;2.97;;;1.40;;
80679;SDS011;70043;51.982;-8.514;2023-05-16T14:09:06;11.13;;;1.63;;
80679;SDS011;70043;51.982;-8.514;2023-05-16T14:11:43;2.95;;;1.35;;
80679;SDS011;70043;51.982;-8.514;2023-05-16T14:14:11;4.40;;;1.10;;
80679;SDS011;70043;51.982;-8.514;2023-05-16T14:16:38;5.85;;;1.60;;
80679;SDS011;70043;51.982;-8.514;2023-05-16T14:19:09;14.77;;;1.73;;
80679;SDS011;70043;51.982;-8.514;2023-05-16T14:21:39;2.83;;;1.20;;
80679;SDS011;70043;51.982;-8.514;2023-05-16T14:24:06;7.32;;;1.65;;
80679;SDS011;70043;51.982;-8.514;2023-05-16T14:26:35;2.80;;;1.50;;
80679;SDS011;70043;51.982;-8.514;2023-05-16T14:29:05;5.15;;;1.60;;
80679;SDS011;70043;51.982;-8.514;2023-05-16T14:31:44;4.45;;;1.40;;
80679;SDS011;70043;51.982;-8.514;2023-05-16T14:34:23;4.60;;;1.52;;
80679;SDS011;70043;51.982;-8.514;2023-05-16T14:36:59;3.67;;;1.40;;
80679;SDS011;70043;51.982;-8.514;2023-05-16T14:39:26;3.40;;;1.40;;
80679;SDS011;70043;51.982;-8.514;2023-05-16T14:41:54;6.68;;;1.55;;
80679;SDS011;70043;51.982;-8.514;2023-05-16T14:44:22;5.70;;;1.27;;
80679;SDS011;70043;51.982;-8.514;2023-05-16T14:46:50;3.72;;;1.08;;
80679;SDS011;70043;51.982;-8.514;2023-05-16T14:49:17;2.45;;;0.82;;
80679;SDS011;70043;51.982;-8.514;2023-05-16T14:51:48;2.28;;;1.17;;
80679;SDS011;70043;51.982;-8.514;2023-05-16T14:54:17;3.35;;;1.35;;
80679;SDS011;70043;51.982;-8.514;2023-05-16T14:56:45;3.50;;;1.25;;
80679;SDS011;70043;51.982;-8.514;2023-05-16T14:59:13;3.33;;;1.27;;
80679;SDS011;70043;51.982;-8.514;2023-05-16T15:01:43;2.83;;;1.38;;
80679;SDS011;70043;51.982;-8.514;2023-05-16T15:04:13;3.95;;;1.42;;
80679;SDS011;70043;51.982;-8.514;2023-05-16T15:06:41;3.25;;;1.40;;
80679;SDS011;70043;51.982;-8.514;2023-05-16T15:09:09;2.25;;;1.30;;
80679;SDS011;70043;51.982;-8.514;2023-05-16T15:11:38;3.67;;;1.30;;
80679;SDS011;70043;51.982;-8.514;2023-05-16T15:14:05;3.05;;;1.52;;
80679;SDS011;70043;51.982;-8.514;2023-05-16T15:16:34;5.13;;;1.17;;
80679;SDS011;70043;51.982;-8.514;2023-05-16T15:19:01;2.72;;;1.25;;
80679;SDS011;70043;51.982;-8.514;2023-05-16T15:21:29;2.33;;;1.38;;
80679;SDS011;70043;51.982;-8.514;2023-05-16T15:23:59;3.78;;;1.40;;
80679;SDS011;70043;51.982;-8.514;2023-05-16T15:26:26;5.13;;;1.20;;
80679;SDS011;70043;51.982;-8.514;2023-05-16T15:28:56;5.57;;;1.73;;
80679;SDS011;70043;51.982;-8.514;2023-05-16T15:31:24;2.50;;;0.88;;
80679;SDS011;70043;51.982;-8.514;2023-05-16T15:33:51;3.35;;;1.10;;
80679;SDS011;70043;51.982;-8.514;2023-05-16T15:36:19;2.15;;;1.30;;
80679;SDS011;70043;51.982;-8.514;2023-05-16T15:38:47;4.93;;;1.65;;
80679;SDS011;70043;51.982;-8.514;2023-05-16T15:41:15;2.25;;;1.38;;
80679;SDS011;70043;51.982;-8.514;2023-05-16T15:43:43;6.43;;;1.25;;
80679;SDS011;70043;51.982;-8.514;2023-05-16T15:46:12;3.28;;;1.55;;
80679;SDS011;70043;51.982;-8.514;2023-05-16T15:48:39;2.92;;;1.33;;
80679;SDS011;70043;51.982;-8.514;2023-05-16T15:51:09;2.88;;;1.40;;
80679;SDS011;70043;51.982;-8.514;2023-05-16T15:53:37;4.47;;;1.88;;
80679;SDS011;70043;51.982;-8.514;2023-05-16T15:56:05;3.35;;;1.80;;
80679;SDS011;70043;51.982;-8.514;2023-05-16T15:58:33;5.75;;;1.92;;
80679;SDS011;70043;51.982;-8.514;2023-05-16T16:01:01;5.30;;;1.52;;
80679;SDS011;70043;51.982;-8.514;2023-05-16T16:03:31;5.05;;;1.95;;
80679;SDS011;70043;51.982;-8.514;2023-05-16T16:05:58;4.07;;;1.52;;
80679;SDS011;70043;51.982;-8.514;2023-05-16T16:08:26;4.38;;;1.90;;
80679;SDS011;70043;51.982;-8.514;2023-05-16T16:10:54;4.95;;;1.70;;
80679;SDS011;70043;51.982;-8.514;2023-05-16T16:13:22;6.22;;;1.90;;
80679;SDS011;70043;51.982;-8.514;2023-05-16T16:15:50;2.85;;;1.60;;
80679;SDS011;70043;51.982;-8.514;2023-05-16T16:18:18;2.20;;;1.40;;
80679;SDS011;70043;51.982;-8.514;2023-05-16T16:20:47;3.70;;;1.70;;
80679;SDS011;70043;51.982;-8.514;2023-05-16T16:23:20;3.92;;;1.30;;
80679;SDS011;70043;51.982;-8.514;2023-05-16T16:25:48;5.63;;;1.75;;
80679;SDS011;70043;51.982;-8.514;2023-05-16T16:28:16;3.67;;;1.20;;
80679;SDS011;70043;51.982;-8.514;2023-05-16T16:30:44;3.85;;;1.83;;
80679;SDS011;70043;51.982;-8.514;2023-05-16T16:33:14;5.07;;;1.58;;
80679;SDS011;70043;51.982;-8.514;2023-05-16T16:35:44;3.03;;;1.70;;
80679;SDS011;70043;51.982;-8.514;2023-05-16T16:40:41;3.42;;;1.85;;
80679;SDS011;70043;51.982;-8.514;2023-05-16T16:43:09;4.13;;;1.88;;
80679;SDS011;70043;51.982;-8.514;2023-05-16T16:45:37;4.53;;;2.13;;
80679;SDS011;70043;51.982;-8.514;2023-05-16T16:48:05;5.18;;;2.03;;
80679;SDS011;70043;51.982;-8.514;2023-05-16T16:50:34;4.10;;;1.80;;
80679;SDS011;70043;51.982;-8.514;2023-05-16T16:53:04;7.40;;;2.13;;
80679;SDS011;70043;51.982;-8.514;2023-05-16T16:55:32;4.00;;;1.67;;
80679;SDS011;70043;51.982;-8.514;2023-05-16T16:58:00;3.65;;;1.65;;
80679;SDS011;70043;51.982;-8.514;2023-05-16T17:00:27;3.72;;;1.27;;
80679;SDS011;70043;51.982;-8.514;2023-05-16T17:02:56;3.97;;;2.35;;
80679;SDS011;70043;51.982;-8.514;2023-05-16T17:05:24;5.30;;;1.73;;
80679;SDS011;70043;51.982;-8.514;2023-05-16T17:07:53;2.78;;;1.50;;
80679;SDS011;70043;51.982;-8.514;2023-05-16T17:13:11;4.18;;;1.90;;
80679;SDS011;70043;51.982;-8.514;2023-05-16T17:15:39;3.88;;;1.65;;
80679;SDS011;70043;51.982;-8.514;2023-05-16T17:18:09;2.25;;;1.52;;
80679;SDS011;70043;51.982;-8.514;2023-05-16T17:20:37;5.35;;;2.30;;